Knox City, Texas
Current Conditions -  °F | °C
As of 2:15 AM on Thursday 29 Jan 2015 (Local Time) from KF05 Reporting Station
Clear Clear  
Wind Chill: 56°   Ceiling: Unl
Heat Index: 56°   Visibility: 10mi
Dew Point: 30°   Wind: 8mph
Humidity: 37%   Direction: 360°N
Pressure: 30.12"   Gusts: NA
Location:  33.42°N, 99.82°W
Report Text: KF05 290815Z AUTO 36007KT 10SM CLR 13/M01 A3012 RMK AO1 T01311012
Loading
Personal Weather Stations






























Interactive Weather Map New forecast layout! Learn more

10-Day Weather Forecast

Advertisements
Track Severe Weather on mobile